• Join FlightAware (Why Join?)
  • Login
  • US Flag 
02:38PM EDT


 

Airport Tracker/Info


-or-


 

Live Flight TrackerFlight Track Log ✈ N612CT ✈ 20-Sep-2013 ✈ KSRQ - KAPF

Flight Track Log - Related Links

Times and Time Zones

All times are in EDT time to prevent confusion due to time zone crossing. See the N612CT flight status page for this flight to view local times or setup timezone preferences in your user account.

Time Position Orientation Groundspeed Altitude Reporting Facility
EDT Latitude Longitude Course Direction KTS MPH feet Rate Location/Type
10:54PM 27.3833 -82.5500 158° South 95 109 400  Level Tampa TRACON
10:55PM 27.3667 -82.5500 180° South 128 147 1,300 840 Climbing Tampa TRACON
10:56PM 27.3333 -82.5500 180° South 124 143 2,000 780 Climbing Tampa TRACON
10:57PM 27.3000 -82.5500 180° South 128 147 2,800 660 Climbing Tampa TRACON
10:58PM 27.2500 -82.5333 163° South 138 159 3,400 600 Climbing Tampa TRACON
10:59PM 27.2167 -82.5167 156° South 140 161 4,100 660 Climbing Tampa TRACON
11:00PM 27.1347 -82.3894 158° South  Level Estimated
11:01PM 27.1646 -82.4800 119° Southeast  Level Estimated
11:08PM 26.9159 -82.3056 159° South  Level Estimated
11:09PM 26.8821 -82.2779 144° Southeast  Level FlightAware Approximate
11:10PM 26.8482 -82.2503 144° Southeast  Level FlightAware Approximate
11:11PM 26.8144 -82.2227 144° Southeast  Level FlightAware Approximate
11:12PM 26.7805 -82.1951 144° Southeast  Level FlightAware Approximate
11:13PM 26.7466 -82.1675 144° Southeast  Level FlightAware Approximate
11:14PM 26.7127 -82.1399 144° Southeast  Level FlightAware Approximate
11:15PM 26.6788 -82.1124 144° Southeast  Level FlightAware Approximate
11:16PM 26.6449 -82.0849 144° Southeast  Level FlightAware Approximate
11:17PM 26.6110 -82.0573 144° Southeast  Level FlightAware Approximate
11:18PM 26.5771 -82.0298 144° Southeast  Level FlightAware Approximate
11:19PM 26.5432 -82.0024 144° Southeast  Level FlightAware Approximate
11:20PM 26.5093 -81.9749 144° Southeast  Level FlightAware Approximate
11:21PM 26.4753 -81.9474 144° Southeast  Level FlightAware Approximate
11:22PM 26.4414 -81.9200 144° Southeast  Level FlightAware Approximate
11:23PM 26.4075 -81.8926 144° Southeast  Level FlightAware Approximate
11:24PM 26.4026 -81.8929 156° South  Level FlightAware Approximate
11:25PM 26.3644 -81.8738 156° South  Level FlightAware Approximate
11:26PM 26.3261 -81.8547 156° South  Level FlightAware Approximate
11:27PM 26.2879 -81.8356 156° South  Level FlightAware Approximate
11:28PM 26.2497 -81.8165 156° South  Level FlightAware Approximate
11:29PM 26.2115 -81.7974 156° South  Level FlightAware Approximate